sensor_id;sensor_type;location;lat;lon;timestamp;pressure;altitude;pressure_sealevel;temperature;humidity
75585;BME280;64162;53.508;10.476;2024-02-04T00:00:49;101325.97;;;9.30;65.51
75585;BME280;64162;53.508;10.476;2024-02-04T00:03:16;101320.28;;;9.65;65.08
75585;BME280;64162;53.508;10.476;2024-02-04T00:05:42;101312.91;;;9.51;65.07
75585;BME280;64162;53.508;10.476;2024-02-04T00:08:09;101299.72;;;9.73;65.04
75585;BME280;64162;53.508;10.476;2024-02-04T00:10:35;101311.16;;;9.42;65.69
75585;BME280;64162;53.508;10.476;2024-02-04T00:13:02;101298.22;;;9.61;64.56
75585;BME280;64162;53.508;10.476;2024-02-04T00:15:30;101294.41;;;9.46;65.64
75585;BME280;64162;53.508;10.476;2024-02-04T00:17:56;101298.34;;;9.21;66.42
75585;BME280;64162;53.508;10.476;2024-02-04T00:20:23;101289.66;;;9.41;65.50
75585;BME280;64162;53.508;10.476;2024-02-04T00:22:51;101293.47;;;9.66;64.58
75585;BME280;64162;53.508;10.476;2024-02-04T00:25:18;101296.97;;;9.27;65.80
75585;BME280;64162;53.508;10.476;2024-02-04T00:27:45;101285.88;;;9.45;65.30
75585;BME280;64162;53.508;10.476;2024-02-04T00:30:12;101296.34;;;9.63;64.57
75585;BME280;64162;53.508;10.476;2024-02-04T00:32:38;101299.56;;;9.36;64.94
75585;BME280;64162;53.508;10.476;2024-02-04T00:35:05;101297.28;;;9.33;65.26
75585;BME280;64162;53.508;10.476;2024-02-04T00:37:32;101308.16;;;9.56;64.78
75585;BME280;64162;53.508;10.476;2024-02-04T00:39:59;101311.44;;;9.58;64.87
75585;BME280;64162;53.508;10.476;2024-02-04T00:42:26;101314.81;;;9.87;63.67
75585;BME280;64162;53.508;10.476;2024-02-04T00:44:52;101319.06;;;9.69;64.17
75585;BME280;64162;53.508;10.476;2024-02-04T00:47:19;101317.13;;;9.71;63.72
75585;BME280;64162;53.508;10.476;2024-02-04T00:49:45;101306.25;;;9.29;65.08
75585;BME280;64162;53.508;10.476;2024-02-04T00:52:12;101291.56;;;9.49;64.91
75585;BME280;64162;53.508;10.476;2024-02-04T00:54:38;101287.50;;;9.75;64.26
75585;BME280;64162;53.508;10.476;2024-02-04T00:57:05;101278.75;;;9.19;65.57
75585;BME280;64162;53.508;10.476;2024-02-04T00:59:32;101280.34;;;9.00;66.50
75585;BME280;64162;53.508;10.476;2024-02-04T01:01:58;101250.69;;;8.85;66.45
75585;BME280;64162;53.508;10.476;2024-02-04T01:04:25;101246.91;;;8.89;66.61
75585;BME280;64162;53.508;10.476;2024-02-04T01:06:52;101267.16;;;8.94;66.48
75585;BME280;64162;53.508;10.476;2024-02-04T01:09:21;101253.97;;;8.87;66.72
75585;BME280;64162;53.508;10.476;2024-02-04T01:11:48;101263.81;;;9.32;65.40
75585;BME280;64162;53.508;10.476;2024-02-04T01:14:14;101267.66;;;8.78;67.27
75585;BME280;64162;53.508;10.476;2024-02-04T01:16:41;101274.34;;;8.90;66.72
75585;BME280;64162;53.508;10.476;2024-02-04T01:19:07;101269.72;;;8.84;67.07
75585;BME280;64162;53.508;10.476;2024-02-04T01:21:34;101243.09;;;8.93;66.77
75585;BME280;64162;53.508;10.476;2024-02-04T01:24:01;101249.53;;;9.37;65.23
75585;BME280;64162;53.508;10.476;2024-02-04T01:26:27;101255.91;;;8.95;66.58
75585;BME280;64162;53.508;10.476;2024-02-04T01:28:54;101239.78;;;8.72;66.94
75585;BME280;64162;53.508;10.476;2024-02-04T01:31:20;101261.78;;;9.45;65.64
75585;BME280;64162;53.508;10.476;2024-02-04T01:33:47;101264.63;;;9.23;66.68
75585;BME280;64162;53.508;10.476;2024-02-04T01:36:13;101275.75;;;9.04;66.29
75585;BME280;64162;53.508;10.476;2024-02-04T01:38:40;101281.34;;;9.19;66.48
75585;BME280;64162;53.508;10.476;2024-02-04T01:41:07;101274.66;;;9.26;66.88
75585;BME280;64162;53.508;10.476;2024-02-04T01:43:33;101261.91;;;9.43;65.84
75585;BME280;64162;53.508;10.476;2024-02-04T01:46:00;101262.16;;;9.12;66.34
75585;BME280;64162;53.508;10.476;2024-02-04T01:48:27;101265.97;;;9.27;66.03
75585;BME280;64162;53.508;10.476;2024-02-04T01:50:57;101251.03;;;9.40;65.51
75585;BME280;64162;53.508;10.476;2024-02-04T01:53:26;101233.91;;;9.29;66.54
75585;BME280;64162;53.508;10.476;2024-02-04T01:55:55;101233.06;;;9.38;65.84
75585;BME280;64162;53.508;10.476;2024-02-04T01:58:22;101250.34;;;9.57;65.48
75585;BME280;64162;53.508;10.476;2024-02-04T02:00:49;101248.84;;;9.45;65.28
75585;BME280;64162;53.508;10.476;2024-02-04T02:03:16;101250.63;;;9.54;65.56
75585;BME280;64162;53.508;10.476;2024-02-04T02:05:43;101256.22;;;9.40;65.39
75585;BME280;64162;53.508;10.476;2024-02-04T02:08:10;101260.81;;;9.36;66.18
75585;BME280;64162;53.508;10.476;2024-02-04T02:10:38;101246.00;;;9.29;66.07
75585;BME280;64162;53.508;10.476;2024-02-04T02:13:23;101258.63;;;9.22;66.31
75585;BME280;64162;53.508;10.476;2024-02-04T02:15:53;101242.59;;;9.28;66.18
75585;BME280;64162;53.508;10.476;2024-02-04T02:26:25;101236.59;;;9.28;65.79
75585;BME280;64162;53.508;10.476;2024-02-04T02:28:52;101236.88;;;9.54;64.80
75585;BME280;64162;53.508;10.476;2024-02-04T02:31:18;101243.13;;;9.41;65.86
75585;BME280;64162;53.508;10.476;2024-02-04T02:33:47;101232.53;;;9.54;64.73
75585;BME280;64162;53.508;10.476;2024-02-04T02:36:17;101231.53;;;9.74;64.84
75585;BME280;64162;53.508;10.476;2024-02-04T02:38:56;101221.31;;;9.73;64.46
75585;BME280;64162;53.508;10.476;2024-02-04T02:41:27;101222.69;;;9.67;64.82
75585;BME280;64162;53.508;10.476;2024-02-04T02:43:56;101211.28;;;9.60;64.99
75585;BME280;64162;53.508;10.476;2024-02-04T02:46:23;101209.91;;;9.66;64.36
75585;BME280;64162;53.508;10.476;2024-02-04T02:48:50;101212.66;;;9.64;64.53
75585;BME280;64162;53.508;10.476;2024-02-04T02:51:17;101209.22;;;10.29;63.34
75585;BME280;64162;53.508;10.476;2024-02-04T02:53:43;101208.78;;;9.87;64.52
75585;BME280;64162;53.508;10.476;2024-02-04T02:56:10;101192.47;;;9.77;64.56
75585;BME280;64162;53.508;10.476;2024-02-04T02:58:37;101191.13;;;9.73;64.88
75585;BME280;64162;53.508;10.476;2024-02-04T03:01:03;101188.94;;;9.69;64.67
75585;BME280;64162;53.508;10.476;2024-02-04T03:03:30;101189.13;;;9.48;64.87
75585;BME280;64162;53.508;10.476;2024-02-04T03:05:56;101191.28;;;9.62;64.43
75585;BME280;64162;53.508;10.476;2024-02-04T03:08:23;101200.78;;;9.71;64.00
75585;BME280;64162;53.508;10.476;2024-02-04T03:10:49;101186.81;;;9.26;65.25
75585;BME280;64162;53.508;10.476;2024-02-04T03:13:16;101180.66;;;9.65;64.20
75585;BME280;64162;53.508;10.476;2024-02-04T03:15:43;101182.44;;;10.02;62.97
75585;BME280;64162;53.508;10.476;2024-02-04T03:18:10;101188.03;;;9.60;64.41
75585;BME280;64162;53.508;10.476;2024-02-04T03:20:37;101180.31;;;9.87;64.02
75585;BME280;64162;53.508;10.476;2024-02-04T03:23:03;101187.91;;;9.33;64.67
75585;BME280;64162;53.508;10.476;2024-02-04T03:25:31;101182.34;;;9.94;63.32
75585;BME280;64162;53.508;10.476;2024-02-04T03:27:57;101177.28;;;9.36;64.72
75585;BME280;64162;53.508;10.476;2024-02-04T03:30:24;101174.69;;;10.02;63.63
75585;BME280;64162;53.508;10.476;2024-02-04T03:32:50;101184.34;;;9.63;64.09
75585;BME280;64162;53.508;10.476;2024-02-04T03:35:17;101180.28;;;9.22;65.30
75585;BME280;64162;53.508;10.476;2024-02-04T03:37:44;101176.09;;;9.86;63.41
75585;BME280;64162;53.508;10.476;2024-02-04T03:40:11;101184.09;;;9.37;64.77
75585;BME280;64162;53.508;10.476;2024-02-04T03:42:38;101184.63;;;9.60;64.69
75585;BME280;64162;53.508;10.476;2024-02-04T03:45:07;101183.47;;;9.81;64.03
75585;BME280;64162;53.508;10.476;2024-02-04T03:47:33;101172.22;;;9.63;64.09
75585;BME280;64162;53.508;10.476;2024-02-04T03:50:00;101184.63;;;9.60;63.73
75585;BME280;64162;53.508;10.476;2024-02-04T03:52:27;101179.69;;;9.66;64.02
75585;BME280;64162;53.508;10.476;2024-02-04T03:54:53;101167.63;;;9.47;64.50
75585;BME280;64162;53.508;10.476;2024-02-04T03:57:20;101173.91;;;9.91;63.44
75585;BME280;64162;53.508;10.476;2024-02-04T03:59:46;101163.88;;;9.79;63.17
75585;BME280;64162;53.508;10.476;2024-02-04T04:02:13;101158.81;;;9.40;64.83
75585;BME280;64162;53.508;10.476;2024-02-04T04:04:40;101166.97;;;9.45;64.56
75585;BME280;64162;53.508;10.476;2024-02-04T04:07:08;101163.97;;;9.31;64.63
75585;BME280;64162;53.508;10.476;2024-02-04T04:09:35;101154.31;;;9.33;65.19
75585;BME280;64162;53.508;10.476;2024-02-04T04:12:01;101161.97;;;9.25;64.69
75585;BME280;64162;53.508;10.476;2024-02-04T04:14:28;101154.59;;;9.30;64.95
75585;BME280;64162;53.508;10.476;2024-02-04T04:16:54;101158.25;;;9.27;64.66
75585;BME280;64162;53.508;10.476;2024-02-04T04:19:21;101155.22;;;9.51;64.22
75585;BME280;64162;53.508;10.476;2024-02-04T04:21:47;101162.88;;;9.43;65.38
75585;BME280;64162;53.508;10.476;2024-02-04T04:24:14;101149.66;;;9.46;64.90
75585;BME280;64162;53.508;10.476;2024-02-04T04:26:42;101152.66;;;9.41;64.34
75585;BME280;64162;53.508;10.476;2024-02-04T04:29:09;101143.94;;;9.52;64.38
75585;BME280;64162;53.508;10.476;2024-02-04T04:31:36;101157.38;;;9.56;64.27
75585;BME280;64162;53.508;10.476;2024-02-04T04:34:02;101141.28;;;9.25;64.88
75585;BME280;64162;53.508;10.476;2024-02-04T04:36:29;101143.47;;;9.20;65.06
75585;BME280;64162;53.508;10.476;2024-02-04T04:38:55;101139.25;;;9.09;65.30
75585;BME280;64162;53.508;10.476;2024-02-04T04:41:22;101149.25;;;9.41;64.59
75585;BME280;64162;53.508;10.476;2024-02-04T04:43:48;101136.28;;;8.94;65.78
75585;BME280;64162;53.508;10.476;2024-02-04T04:46:15;101156.63;;;9.17;65.50
75585;BME280;64162;53.508;10.476;2024-02-04T04:48:42;101157.19;;;9.01;66.01
75585;BME280;64162;53.508;10.476;2024-02-04T04:51:10;101150.13;;;9.13;65.96
75585;BME280;64162;53.508;10.476;2024-02-04T04:53:37;101141.69;;;9.11;65.99
75585;BME280;64162;53.508;10.476;2024-02-04T04:56:05;101139.47;;;9.44;64.83
75585;BME280;64162;53.508;10.476;2024-02-04T04:58:32;101146.97;;;9.38;65.52
75585;BME280;64162;53.508;10.476;2024-02-04T05:00:58;101117.22;;;9.15;65.82
75585;BME280;64162;53.508;10.476;2024-02-04T05:03:25;101116.91;;;9.37;65.78
75585;BME280;64162;53.508;10.476;2024-02-04T05:05:51;101127.94;;;9.00;66.39
75585;BME280;64162;53.508;10.476;2024-02-04T05:08:18;101109.31;;;9.07;66.98
75585;BME280;64162;53.508;10.476;2024-02-04T05:10:44;101118.94;;;9.43;65.60
75585;BME280;64162;53.508;10.476;2024-02-04T05:13:11;101110.00;;;9.18;66.36
75585;BME280;64162;53.508;10.476;2024-02-04T05:15:37;101104.41;;;9.23;66.44
75585;BME280;64162;53.508;10.476;2024-02-04T05:18:04;101100.28;;;9.49;66.17
75585;BME280;64162;53.508;10.476;2024-02-04T05:20:31;101108.91;;;9.21;66.83
75585;BME280;64162;53.508;10.476;2024-02-04T05:22:58;101105.50;;;9.11;66.86
75585;BME280;64162;53.508;10.476;2024-02-04T05:25:24;101099.50;;;9.39;66.38
75585;BME280;64162;53.508;10.476;2024-02-04T05:27:51;101093.28;;;9.69;65.27
75585;BME280;64162;53.508;10.476;2024-02-04T05:30:18;101094.41;;;9.57;65.70
75585;BME280;64162;53.508;10.476;2024-02-04T05:32:45;101107.69;;;9.25;66.38
75585;BME280;64162;53.508;10.476;2024-02-04T05:35:11;101096.13;;;9.29;66.19
75585;BME280;64162;53.508;10.476;2024-02-04T05:37:38;101103.19;;;9.27;66.63
75585;BME280;64162;53.508;10.476;2024-02-04T05:40:05;101083.81;;;8.84;68.38
75585;BME280;64162;53.508;10.476;2024-02-04T05:42:31;101093.97;;;9.15;67.11
75585;BME280;64162;53.508;10.476;2024-02-04T05:44:58;101098.75;;;9.10;67.50
75585;BME280;64162;53.508;10.476;2024-02-04T05:47:25;101078.06;;;8.90;68.00
75585;BME280;64162;53.508;10.476;2024-02-04T05:49:51;101073.72;;;9.00;67.70
75585;BME280;64162;53.508;10.476;2024-02-04T05:52:18;101095.13;;;9.49;66.34
75585;BME280;64162;53.508;10.476;2024-02-04T05:54:44;101079.69;;;9.11;67.52
75585;BME280;64162;53.508;10.476;2024-02-04T05:57:11;101073.94;;;9.26;67.04
75585;BME280;64162;53.508;10.476;2024-02-04T05:59:38;101077.47;;;9.35;66.67
75585;BME280;64162;53.508;10.476;2024-02-04T06:02:05;101078.50;;;9.05;67.91
75585;BME280;64162;53.508;10.476;2024-02-04T06:04:32;101075.66;;;8.89;67.76
75585;BME280;64162;53.508;10.476;2024-02-04T06:06:59;101067.59;;;9.01;67.56
75585;BME280;64162;53.508;10.476;2024-02-04T06:09:25;101066.91;;;9.19;67.17
75585;BME280;64162;53.508;10.476;2024-02-04T06:11:52;101080.81;;;8.98;68.08
75585;BME280;64162;53.508;10.476;2024-02-04T06:14:19;101079.28;;;9.05;67.48
75585;BME280;64162;53.508;10.476;2024-02-04T06:16:45;101076.03;;;9.13;67.58
75585;BME280;64162;53.508;10.476;2024-02-04T06:19:12;101068.94;;;9.25;66.99
75585;BME280;64162;53.508;10.476;2024-02-04T06:21:40;101084.03;;;9.20;67.73
75585;BME280;64162;53.508;10.476;2024-02-04T06:24:07;101078.28;;;9.26;67.13
75585;BME280;64162;53.508;10.476;2024-02-04T06:26:37;101077.09;;;9.11;67.45
75585;BME280;64162;53.508;10.476;2024-02-04T06:29:04;101085.06;;;9.36;66.45
75585;BME280;64162;53.508;10.476;2024-02-04T06:31:30;101068.09;;;9.34;66.80
75585;BME280;64162;53.508;10.476;2024-02-04T06:33:57;101060.66;;;9.02;67.78
75585;BME280;64162;53.508;10.476;2024-02-04T06:36:23;101067.03;;;9.17;67.12
75585;BME280;64162;53.508;10.476;2024-02-04T06:38:50;101073.97;;;9.17;67.23
75585;BME280;64162;53.508;10.476;2024-02-04T06:41:16;101060.16;;;8.89;67.60
75585;BME280;64162;53.508;10.476;2024-02-04T06:43:43;101064.34;;;9.46;66.21
75585;BME280;64162;53.508;10.476;2024-02-04T06:46:10;101053.75;;;8.93;67.32
75585;BME280;64162;53.508;10.476;2024-02-04T06:48:36;101059.81;;;9.30;66.63
75585;BME280;64162;53.508;10.476;2024-02-04T06:51:03;101050.03;;;9.24;67.21
75585;BME280;64162;53.508;10.476;2024-02-04T06:53:30;101045.31;;;9.47;66.23
75585;BME280;64162;53.508;10.476;2024-02-04T06:55:56;101050.63;;;9.55;65.75
75585;BME280;64162;53.508;10.476;2024-02-04T06:58:23;101048.22;;;9.71;65.46
75585;BME280;64162;53.508;10.476;2024-02-04T07:00:49;101054.63;;;9.21;66.90
75585;BME280;64162;53.508;10.476;2024-02-04T07:03:16;101055.25;;;9.42;66.52
75585;BME280;64162;53.508;10.476;2024-02-04T07:05:42;101059.97;;;9.56;66.07
75585;BME280;64162;53.508;10.476;2024-02-04T07:08:13;101043.34;;;9.22;67.02
75585;BME280;64162;53.508;10.476;2024-02-04T07:10:40;101056.03;;;9.15;66.90
75585;BME280;64162;53.508;10.476;2024-02-04T07:13:06;101044.59;;;9.18;66.96
75585;BME280;64162;53.508;10.476;2024-02-04T07:15:34;101041.47;;;9.24;66.99
75585;BME280;64162;53.508;10.476;2024-02-04T07:18:01;101030.19;;;9.25;66.40
75585;BME280;64162;53.508;10.476;2024-02-04T07:20:27;101023.53;;;9.13;66.89
75585;BME280;64162;53.508;10.476;2024-02-04T07:22:54;101024.31;;;9.60;65.95
75585;BME280;64162;53.508;10.476;2024-02-04T07:25:20;101031.34;;;8.93;67.69
75585;BME280;64162;53.508;10.476;2024-02-04T07:27:48;101043.31;;;9.31;66.41
75585;BME280;64162;53.508;10.476;2024-02-04T07:30:15;101038.31;;;9.30;66.73
75585;BME280;64162;53.508;10.476;2024-02-04T07:32:42;101021.06;;;9.21;66.11
75585;BME280;64162;53.508;10.476;2024-02-04T07:35:10;101029.88;;;9.28;66.71
75585;BME280;64162;53.508;10.476;2024-02-04T07:37:36;101052.44;;;9.26;66.81
75585;BME280;64162;53.508;10.476;2024-02-04T07:40:03;101044.84;;;9.34;66.24
75585;BME280;64162;53.508;10.476;2024-02-04T07:42:31;101029.75;;;9.29;66.28
75585;BME280;64162;53.508;10.476;2024-02-04T07:44:58;101032.78;;;9.52;66.23
75585;BME280;64162;53.508;10.476;2024-02-04T07:47:25;101039.19;;;9.01;67.35
75585;BME280;64162;53.508;10.476;2024-02-04T07:49:52;101034.75;;;9.31;66.11
75585;BME280;64162;53.508;10.476;2024-02-04T07:52:18;101016.78;;;9.39;66.94
75585;BME280;64162;53.508;10.476;2024-02-04T07:54:45;101023.41;;;9.78;65.44
75585;BME280;64162;53.508;10.476;2024-02-04T07:57:12;101025.81;;;9.25;66.51
75585;BME280;64162;53.508;10.476;2024-02-04T07:59:39;101022.81;;;9.30;67.19
75585;BME280;64162;53.508;10.476;2024-02-04T08:02:05;101036.53;;;9.40;66.22
75585;BME280;64162;53.508;10.476;2024-02-04T08:04:33;101045.31;;;9.10;67.32
75585;BME280;64162;53.508;10.476;2024-02-04T08:07:00;101026.28;;;9.48;66.77
75585;BME280;64162;53.508;10.476;2024-02-04T08:09:27;101039.06;;;9.50;66.21
75585;BME280;64162;53.508;10.476;2024-02-04T08:11:53;101025.00;;;9.25;66.14
75585;BME280;64162;53.508;10.476;2024-02-04T08:14:21;101033.56;;;9.62;65.85
75585;BME280;64162;53.508;10.476;2024-02-04T08:16:48;101021.16;;;9.66;65.38
75585;BME280;64162;53.508;10.476;2024-02-04T08:19:15;101011.69;;;9.20;66.27
75585;BME280;64162;53.508;10.476;2024-02-04T08:21:42;101025.19;;;9.78;65.15
75585;BME280;64162;53.508;10.476;2024-02-04T08:24:09;101035.53;;;9.78;65.40
75585;BME280;64162;53.508;10.476;2024-02-04T08:26:35;101019.56;;;9.82;65.50
75585;BME280;64162;53.508;10.476;2024-02-04T08:29:02;101031.28;;;9.59;66.20
75585;BME280;64162;53.508;10.476;2024-02-04T08:31:31;101027.97;;;9.30;65.93
75585;BME280;64162;53.508;10.476;2024-02-04T08:33:59;101030.34;;;10.05;64.50
75585;BME280;64162;53.508;10.476;2024-02-04T08:36:25;101016.78;;;9.39;65.96
75585;BME280;64162;53.508;10.476;2024-02-04T08:38:52;100999.34;;;9.41;65.94
75585;BME280;64162;53.508;10.476;2024-02-04T08:41:19;101014.31;;;9.47;66.33
75585;BME280;64162;53.508;10.476;2024-02-04T08:43:45;101010.09;;;9.73;64.92
75585;BME280;64162;53.508;10.476;2024-02-04T08:46:12;101003.97;;;9.47;66.15
75585;BME280;64162;53.508;10.476;2024-02-04T08:48:41;101008.75;;;9.05;66.32
75585;BME280;64162;53.508;10.476;2024-02-04T08:51:12;101021.97;;;9.39;66.17
75585;BME280;64162;53.508;10.476;2024-02-04T08:53:42;101019.06;;;9.79;64.48
75585;BME280;64162;53.508;10.476;2024-02-04T08:56:09;100999.47;;;9.49;65.77
75585;BME280;64162;53.508;10.476;2024-02-04T08:58:36;101010.25;;;9.44;65.67
75585;BME280;64162;53.508;10.476;2024-02-04T09:01:04;101012.34;;;9.59;65.58
75585;BME280;64162;53.508;10.476;2024-02-04T09:03:31;100996.09;;;9.66;64.63
75585;BME280;64162;53.508;10.476;2024-02-04T09:05:59;101007.22;;;9.76;64.58
75585;BME280;64162;53.508;10.476;2024-02-04T09:08:26;100989.59;;;9.62;65.16
75585;BME280;64162;53.508;10.476;2024-02-04T09:10:52;100981.28;;;9.68;64.59
75585;BME280;64162;53.508;10.476;2024-02-04T09:13:19;100991.41;;;9.52;65.60
75585;BME280;64162;53.508;10.476;2024-02-04T09:15:46;100997.94;;;10.01;64.71
75585;BME280;64162;53.508;10.476;2024-02-04T09:18:12;100982.41;;;9.83;65.39
75585;BME280;64162;53.508;10.476;2024-02-04T09:20:47;100987.22;;;9.78;64.50
75585;BME280;64162;53.508;10.476;2024-02-04T09:23:15;100981.72;;;9.81;64.33
75585;BME280;64162;53.508;10.476;2024-02-04T09:26:02;100996.63;;;9.97;64.14
75585;BME280;64162;53.508;10.476;2024-02-04T09:28:35;101004.50;;;9.78;64.79
75585;BME280;64162;53.508;10.476;2024-02-04T09:31:16;100986.81;;;10.01;64.44
75585;BME280;64162;53.508;10.476;2024-02-04T09:33:50;100996.03;;;10.03;64.17
75585;BME280;64162;53.508;10.476;2024-02-04T09:36:30;100986.38;;;9.51;64.82
75585;BME280;64162;53.508;10.476;2024-02-04T09:39:07;100986.25;;;9.97;64.55
75585;BME280;64162;53.508;10.476;2024-02-04T09:41:37;100982.16;;;9.59;64.69
75585;BME280;64162;53.508;10.476;2024-02-04T09:44:10;100992.81;;;9.46;65.75
75585;BME280;64162;53.508;10.476;2024-02-04T09:46:55;100992.34;;;9.33;65.32
75585;BME280;64162;53.508;10.476;2024-02-04T09:49:44;100978.88;;;9.57;64.89
75585;BME280;64162;53.508;10.476;2024-02-04T09:52:33;100992.56;;;9.95;64.28
75585;BME280;64162;53.508;10.476;2024-02-04T09:55:10;101001.41;;;10.19;63.65
75585;BME280;64162;53.508;10.476;2024-02-04T09:57:54;100990.50;;;9.71;64.71
75585;BME280;64162;53.508;10.476;2024-02-04T10:00:36;101010.66;;;10.12;63.60
75585;BME280;64162;53.508;10.476;2024-02-04T10:03:21;100994.06;;;10.15;63.37
75585;BME280;64162;53.508;10.476;2024-02-04T10:05:57;100998.31;;;10.06;63.77
75585;BME280;64162;53.508;10.476;2024-02-04T10:08:35;100979.22;;;10.17;63.20
75585;BME280;64162;53.508;10.476;2024-02-04T10:11:17;100995.31;;;10.11;63.73
75585;BME280;64162;53.508;10.476;2024-02-04T10:13:50;100981.88;;;10.43;62.75
75585;BME280;64162;53.508;10.476;2024-02-04T10:16:30;100980.28;;;9.97;63.81
75585;BME280;64162;53.508;10.476;2024-02-04T10:19:18;100966.19;;;10.26;62.85
75585;BME280;64162;53.508;10.476;2024-02-04T10:22:06;100970.88;;;10.41;62.58
75585;BME280;64162;53.508;10.476;2024-02-04T10:24:38;100983.44;;;10.36;62.75
75585;BME280;64162;53.508;10.476;2024-02-04T10:27:10;100979.25;;;10.07;63.56
75585;BME280;64162;53.508;10.476;2024-02-04T10:29:53;100960.44;;;10.32;63.05
75585;BME280;64162;53.508;10.476;2024-02-04T10:32:26;100940.25;;;10.01;63.50
75585;BME280;64162;53.508;10.476;2024-02-04T10:35:01;100953.84;;;10.38;63.12
75585;BME280;64162;53.508;10.476;2024-02-04T10:37:42;100969.47;;;9.83;63.69
75585;BME280;64162;53.508;10.476;2024-02-04T10:40:19;100956.78;;;10.08;63.22
75585;BME280;64162;53.508;10.476;2024-02-04T10:42:51;100951.75;;;9.88;63.36
75585;BME280;64162;53.508;10.476;2024-02-04T10:45:26;100936.91;;;10.08;63.47
75585;BME280;64162;53.508;10.476;2024-02-04T10:48:12;100929.38;;;10.32;62.25
75585;BME280;64162;53.508;10.476;2024-02-04T10:50:49;100935.75;;;10.20;62.41
75585;BME280;64162;53.508;10.476;2024-02-04T10:53:40;100948.38;;;10.06;64.06
75585;BME280;64162;53.508;10.476;2024-02-04T10:57:02;100944.75;;;10.16;63.26
75585;BME280;64162;53.508;10.476;2024-02-04T10:59:39;100934.97;;;10.46;62.77
75585;BME280;64162;53.508;10.476;2024-02-04T11:02:24;100926.09;;;10.13;63.53
75585;BME280;64162;53.508;10.476;2024-02-04T11:05:03;100923.28;;;10.67;62.53
75585;BME280;64162;53.508;10.476;2024-02-04T11:07:38;100912.44;;;10.03;63.46
75585;BME280;64162;53.508;10.476;2024-02-04T11:10:17;100921.91;;;10.29;62.99
75585;BME280;64162;53.508;10.476;2024-02-04T11:12:52;100929.72;;;10.38;62.99
75585;BME280;64162;53.508;10.476;2024-02-04T11:15:35;100913.09;;;11.34;63.59
75585;BME280;64162;53.508;10.476;2024-02-04T11:26:41;100905.72;;;10.53;62.42
75585;BME280;64162;53.508;10.476;2024-02-04T11:29:19;100911.25;;;10.32;62.68
75585;BME280;64162;53.508;10.476;2024-02-04T11:32:12;100912.59;;;10.19;63.30
75585;BME280;64162;53.508;10.476;2024-02-04T11:34:40;100920.22;;;10.64;61.99
75585;BME280;64162;53.508;10.476;2024-02-04T11:37:18;100913.38;;;10.89;61.93
75585;BME280;64162;53.508;10.476;2024-02-04T11:39:57;100911.94;;;10.60;62.53
75585;BME280;64162;53.508;10.476;2024-02-04T11:42:36;100908.97;;;10.29;62.79
75585;BME280;64162;53.508;10.476;2024-02-04T11:45:13;100906.34;;;10.73;62.02
75585;BME280;64162;53.508;10.476;2024-02-04T11:47:41;100927.41;;;10.52;62.77
75585;BME280;64162;53.508;10.476;2024-02-04T11:50:09;100917.47;;;10.65;62.12
75585;BME280;64162;53.508;10.476;2024-02-04T11:52:46;100901.31;;;10.71;62.34
75585;BME280;64162;53.508;10.476;2024-02-04T11:55:18;100898.06;;;10.44;62.84
75585;BME280;64162;53.508;10.476;2024-02-04T11:57:53;100891.16;;;10.52;62.80
75585;BME280;64162;53.508;10.476;2024-02-04T12:00:34;100896.19;;;10.54;62.57
75585;BME280;64162;53.508;10.476;2024-02-04T12:03:07;100905.69;;;11.05;61.06
75585;BME280;64162;53.508;10.476;2024-02-04T12:05:39;100914.03;;;11.16;60.47
75585;BME280;64162;53.508;10.476;2024-02-04T12:08:16;100907.25;;;10.38;62.99
75585;BME280;64162;53.508;10.476;2024-02-04T12:10:47;100903.53;;;10.92;61.33
75585;BME280;64162;53.508;10.476;2024-02-04T12:13:21;100907.16;;;11.07;62.14
75585;BME280;64162;53.508;10.476;2024-02-04T12:15:54;100908.88;;;10.91;61.49
75585;BME280;64162;53.508;10.476;2024-02-04T12:18:27;100908.94;;;11.07;61.31
75585;BME280;64162;53.508;10.476;2024-02-04T12:21:00;100892.22;;;10.67;61.84
75585;BME280;64162;53.508;10.476;2024-02-04T12:23:38;100906.94;;;10.93;61.81
75585;BME280;64162;53.508;10.476;2024-02-04T12:26:08;100910.34;;;10.67;61.86
75585;BME280;64162;53.508;10.476;2024-02-04T12:28:39;100914.66;;;10.85;62.09
75585;BME280;64162;53.508;10.476;2024-02-04T12:31:38;100898.47;;;10.83;61.75
75585;BME280;64162;53.508;10.476;2024-02-04T12:34:12;100892.16;;;11.19;60.33
75585;BME280;64162;53.508;10.476;2024-02-04T12:39:41;100887.56;;;11.05;61.32
75585;BME280;64162;53.508;10.476;2024-02-04T12:42:08;100883.53;;;11.10;60.80
75585;BME280;64162;53.508;10.476;2024-02-04T12:44:35;100886.19;;;10.93;60.91
75585;BME280;64162;53.508;10.476;2024-02-04T12:47:02;100881.13;;;10.83;62.18
75585;BME280;64162;53.508;10.476;2024-02-04T12:49:28;100868.56;;;10.62;62.41
75585;BME280;64162;53.508;10.476;2024-02-04T12:52:04;100874.88;;;11.44;60.09
75585;BME280;64162;53.508;10.476;2024-02-04T12:54:42;100869.84;;;10.92;61.86
75585;BME280;64162;53.508;10.476;2024-02-04T12:57:09;100866.41;;;10.84;61.47
75585;BME280;64162;53.508;10.476;2024-02-04T12:59:39;100871.00;;;10.64;61.89
75585;BME280;64162;53.508;10.476;2024-02-04T13:02:08;100883.09;;;10.81;61.46
75585;BME280;64162;53.508;10.476;2024-02-04T13:04:36;100868.25;;;10.91;61.34
75585;BME280;64162;53.508;10.476;2024-02-04T13:07:11;100880.47;;;11.15;61.28
75585;BME280;64162;53.508;10.476;2024-02-04T13:09:40;100872.72;;;11.23;60.78
75585;BME280;64162;53.508;10.476;2024-02-04T13:12:08;100879.16;;;11.11;60.59
75585;BME280;64162;53.508;10.476;2024-02-04T13:14:36;100869.63;;;11.11;60.90
75585;BME280;64162;53.508;10.476;2024-02-04T13:17:06;100872.06;;;11.21;60.42
75585;BME280;64162;53.508;10.476;2024-02-04T13:19:37;100860.28;;;10.93;61.15